Green Mountain, Iowa
Current Conditions -  °F | °C
As of 11:31 AM on Sunday 23 Nov 2014 (Local Time) from KMIW Reporting Station
Light Rain Light Rain  
Wind Chill: 50°   Ceiling: 400
Heat Index: 50°   Visibility: 1.7mi
Dew Point: 50°   Wind: 7mph
Humidity: 100%   Direction: 150°SSE
Pressure: 29.45"   Gusts: NA
Location:  42.0801°N, 92.709°W
Report Text: KMIW 231731Z AUTO 15006KT 1 3/4SM -RA BR OVC004 10/10 A2945 RMK AO2 P0006 T01000100
Loading
Personal Weather Stations






























Interactive Weather Map New forecast layout! Learn more

10-Day Weather Forecast

Advertisements
Track Severe Weather on mobile